Time;durP1;ratioP1;P1;durP2;ratioP2;P2;SDS_P1;SDS_P2;PMS_P1;PMS_P2;Temp;Humidity;BMP_temperature;BMP_pressure;BME280_temperature;BME280_humidity;BME280_pressure;Samples;Min_cycle;Max_cycle;Signal;HPM_P1;HPM_P2
2022/05/12 00:02:14;;;;;;;1.80;1.80;;;22.20;68.60;;;;;;5047449;28;43976;-72
2022/05/12 00:04:42;;;;;;;1.60;1.60;;;22.00;68.50;;;;;;5047019;28;43889;-71
2022/05/12 00:07:10;;;;;;;1.60;1.60;;;22.00;68.70;;;;;;5046817;28;44027;-71
2022/05/12 00:09:37;;;;;;;1.93;1.93;;;21.90;71.00;;;;;;5047126;28;43894;-71
2022/05/12 00:12:09;;;;;;;1.70;1.70;;;22.00;70.60;;;;;;5047294;28;43401;-71
2022/05/12 00:14:36;;;;;;;1.70;1.70;;;22.10;70.20;;;;;;5046915;28;44015;-71
2022/05/12 00:17:05;;;;;;;1.70;1.70;;;22.10;69.80;;;;;;5046809;28;44387;-71
2022/05/12 00:19:34;;;;;;;1.67;1.67;;;22.10;69.60;;;;;;5047057;28;43392;-71
2022/05/12 00:22:03;;;;;;;1.70;1.70;;;22.10;69.10;;;;;;5045375;28;43763;-72
2022/05/12 00:24:31;;;;;;;1.80;1.80;;;22.00;69.00;;;;;;5046607;28;45029;-71
2022/05/12 00:26:58;;;;;;;1.80;1.80;;;22.00;68.70;;;;;;5046444;28;44267;-71
2022/05/12 00:29:26;;;;;;;1.73;1.73;;;21.90;68.60;;;;;;5046807;28;43890;-71
2022/05/12 00:31:54;;;;;;;1.87;1.80;;;21.90;68.80;;;;;;5028914;28;43976;-70
2022/05/12 00:34:22;;;;;;;1.77;1.77;;;21.80;69.80;;;;;;5046602;28;44039;-70
2022/05/12 00:36:51;;;;;;;1.60;1.60;;;21.80;71.70;;;;;;5046745;28;44036;-72
2022/05/12 00:39:19;;;;;;;1.73;1.73;;;21.90;71.20;;;;;;5046582;28;43382;-71
2022/05/12 00:41:47;;;;;;;1.77;1.77;;;22.00;70.30;;;;;;5046685;28;44003;-71
2022/05/12 00:44:16;;;;;;;1.90;1.90;;;22.10;69.50;;;;;;5046463;28;43961;-71
2022/05/12 00:46:44;;;;;;;1.97;1.97;;;22.20;69.20;;;;;;5046273;28;44007;-72
2022/05/12 00:49:18;;;;;;;1.90;1.90;;;22.20;69.20;;;;;;5046612;28;43999;-70
2022/05/12 00:51:48;;;;;;;1.60;1.60;;;22.20;69.00;;;;;;5028773;28;43581;-71
2022/05/12 00:54:20;;;;;;;1.63;1.63;;;22.10;68.50;;;;;;5045964;28;43995;-70
2022/05/12 00:56:48;;;;;;;1.60;1.60;;;22.00;68.30;;;;;;5046376;28;43472;-71
2022/05/12 00:59:19;;;;;;;1.73;1.73;;;21.90;69.10;;;;;;5053040;28;43952;-71
2022/05/12 01:01:47;;;;;;;1.57;1.57;;;21.90;70.20;;;;;;5047180;28;43926;-71
2022/05/12 01:04:15;;;;;;;1.83;1.83;;;21.90;71.00;;;;;;5052965;28;45175;-71
2022/05/12 01:06:43;;;;;;;1.60;1.60;;;22.00;70.60;;;;;;5046234;28;43954;-71
2022/05/12 01:09:11;;;;;;;1.57;1.57;;;22.10;69.90;;;;;;5046297;28;43942;-70
2022/05/12 01:11:40;;;;;;;1.63;1.63;;;22.10;69.30;;;;;;5046908;28;43434;-72
2022/05/12 01:14:08;;;;;;;1.63;1.63;;;22.20;69.30;;;;;;5046686;28;43959;-72
2022/05/12 01:16:43;;;;;;;1.60;1.60;;;22.10;69.10;;;;;;5052766;28;43843;-71
2022/05/12 01:19:13;;;;;;;1.60;1.60;;;22.10;68.80;;;;;;5052725;28;43780;-70
2022/05/12 01:21:41;;;;;;;1.70;1.70;;;22.00;68.40;;;;;;5052907;28;44092;-71
2022/05/12 01:24:11;;;;;;;1.40;1.40;;;22.00;68.40;;;;;;5052473;28;43989;-71
2022/05/12 01:26:38;;;;;;;1.70;1.70;;;21.90;68.50;;;;;;5052478;28;43858;-71
2022/05/12 01:29:06;;;;;;;1.47;1.47;;;21.80;70.70;;;;;;5052787;28;43982;-71
2022/05/12 01:31:35;;;;;;;1.60;1.60;;;21.90;71.40;;;;;;5053255;28;43967;-72
2022/05/12 01:34:03;;;;;;;1.57;1.57;;;22.00;70.80;;;;;;5052451;28;44004;-71
2022/05/12 01:36:31;;;;;;;1.70;1.70;;;22.00;69.90;;;;;;5034052;28;46313;-71
2022/05/12 01:38:59;;;;;;;1.43;1.40;;;22.20;69.60;;;;;;5052581;28;43788;-71
2022/05/12 01:41:28;;;;;;;1.50;1.50;;;22.20;69.40;;;;;;5052728;28;43494;-70
2022/05/12 01:43:56;;;;;;;1.50;1.50;;;22.20;69.20;;;;;;5052519;28;43624;-71
2022/05/12 01:46:25;;;;;;;1.60;1.60;;;22.10;68.70;;;;;;5034114;28;43906;-71
2022/05/12 01:48:53;;;;;;;1.60;1.60;;;22.10;68.40;;;;;;5051088;28;43976;-71
2022/05/12 01:51:22;;;;;;;1.70;1.70;;;22.00;68.40;;;;;;5052957;28;43949;-71
2022/05/12 01:53:50;;;;;;;1.60;1.60;;;21.90;68.40;;;;;;5052447;28;44028;-71
2022/05/12 01:56:18;;;;;;;1.60;1.60;;;21.80;70.60;;;;;;5052194;28;43878;-71
2022/05/12 01:58:47;;;;;;;1.50;1.50;;;21.90;71.30;;;;;;5052404;28;44023;-71
2022/05/12 02:01:15;;;;;;;1.50;1.50;;;22.00;70.60;;;;;;5052843;28;43961;-71
2022/05/12 02:03:43;;;;;;;1.40;1.40;;;22.10;69.80;;;;;;5052006;28;44008;-71
2022/05/12 02:06:11;;;;;;;1.63;1.63;;;22.20;69.30;;;;;;5033817;28;44067;-71
2022/05/12 02:08:39;;;;;;;1.40;1.40;;;22.20;69.40;;;;;;5050944;28;43945;-70
2022/05/12 02:11:07;;;;;;;1.50;1.50;;;22.20;69.10;;;;;;5048965;28;43457;-71
2022/05/12 02:13:34;;;;;;;1.70;1.70;;;22.10;68.60;;;;;;5048912;28;43912;-71
2022/05/12 02:16:04;;;;;;;1.30;1.30;;;22.10;68.30;;;;;;5048707;28;44122;-72
2022/05/12 02:18:32;;;;;;;1.50;1.50;;;22.00;68.20;;;;;;5048368;28;43993;-71
2022/05/12 02:21:00;;;;;;;1.40;1.40;;;21.90;69.00;;;;;;5049087;28;43397;-72
2022/05/12 02:23:28;;;;;;;1.60;1.60;;;21.80;70.80;;;;;;5048600;28;43916;-72
2022/05/12 02:25:56;;;;;;;1.80;1.70;;;21.90;71.00;;;;;;5048438;28;44117;-70
2022/05/12 02:28:24;;;;;;;1.47;1.47;;;22.00;70.50;;;;;;5048729;28;43985;-71
2022/05/12 02:30:52;;;;;;;1.57;1.57;;;22.00;70.30;;;;;;5049088;28;44003;-71
2022/05/12 02:33:22;;;;;;;1.30;1.30;;;22.00;69.60;;;;;;5048796;28;43994;-71
2022/05/12 02:35:50;;;;;;;1.40;1.40;;;22.00;69.30;;;;;;5048452;28;43949;-72
2022/05/12 02:38:17;;;;;;;1.37;1.37;;;21.90;68.80;;;;;;5048581;28;43981;-71
2022/05/12 02:40:45;;;;;;;1.43;1.43;;;21.80;68.50;;;;;;5048215;28;43902;-71
2022/05/12 02:43:25;;;;;;;1.30;1.30;;;21.80;68.70;;;;;;5033357;28;46126;-71
2022/05/12 02:45:54;;;;;;;1.40;1.40;;;21.80;68.90;;;;;;5048588;28;43439;-71
2022/05/12 02:48:26;;;;;;;1.53;1.53;;;21.70;68.90;;;;;;5048445;28;43878;-70
2022/05/12 02:50:54;;;;;;;1.40;1.40;;;21.70;71.60;;;;;;5049000;28;44016;-72
2022/05/12 02:53:22;;;;;;;1.30;1.30;;;21.80;71.20;;;;;;5048427;28;43944;-72
2022/05/12 02:55:56;;;;;;;1.60;1.50;;;22.00;70.50;;;;;;5036675;28;44617;-71
2022/05/12 02:58:24;;;;;;;1.50;1.50;;;22.10;69.80;;;;;;5048355;28;43925;-70
2022/05/12 03:00:53;;;;;;;1.37;1.37;;;22.20;69.00;;;;;;5048559;28;43976;-71
2022/05/12 03:03:21;;;;;;;1.10;1.10;;;22.30;69.20;;;;;;5048184;28;43906;-71
2022/05/12 03:05:51;;;;;;;1.40;1.40;;;22.30;68.80;;;;;;5048072;28;43465;-71
2022/05/12 03:08:19;;;;;;;1.37;1.37;;;22.20;68.70;;;;;;5041246;28;43992;-71
2022/05/12 03:10:49;;;;;;;1.30;1.30;;;22.10;68.80;;;;;;5041708;28;43942;-70
2022/05/12 03:13:16;;;;;;;1.40;1.40;;;22.10;68.20;;;;;;5041398;28;44031;-70
2022/05/12 03:15:44;;;;;;;1.40;1.40;;;22.00;68.10;;;;;;5047908;28;44016;-71
2022/05/12 03:18:12;;;;;;;1.40;1.40;;;21.90;70.50;;;;;;5047797;28;44161;-71
2022/05/12 03:20:40;;;;;;;1.50;1.50;;;22.00;70.90;;;;;;5029369;28;44025;-70
2022/05/12 03:23:09;;;;;;;1.67;1.67;;;22.00;70.30;;;;;;5047725;28;43874;-71
2022/05/12 03:25:37;;;;;;;1.50;1.50;;;22.00;70.20;;;;;;5047621;28;43959;-70
2022/05/12 03:28:05;;;;;;;1.20;1.20;;;22.10;69.70;;;;;;5029306;28;44026;-72
2022/05/12 03:30:34;;;;;;;1.47;1.43;;;22.00;69.60;;;;;;5048020;28;43504;-71
2022/05/12 03:33:02;;;;;;;1.40;1.40;;;22.00;68.70;;;;;;5047174;28;43977;-71
2022/05/12 03:35:30;;;;;;;1.33;1.33;;;21.90;68.60;;;;;;5047407;28;43960;-71
2022/05/12 03:37:58;;;;;;;1.37;1.37;;;21.80;68.70;;;;;;5047422;28;43995;-70
2022/05/12 03:40:27;;;;;;;1.23;1.23;;;21.80;68.80;;;;;;5045922;28;44164;-71
2022/05/12 03:42:58;;;;;;;1.30;1.30;;;21.70;68.90;;;;;;5046817;28;45270;-70
2022/05/12 03:45:25;;;;;;;1.30;1.30;;;21.70;71.20;;;;;;5047442;28;43812;-71
2022/05/12 03:47:55;;;;;;;1.40;1.40;;;21.80;71.40;;;;;;5047655;28;44030;-71
2022/05/12 03:50:24;;;;;;;1.37;1.37;;;21.90;71.00;;;;;;5048054;28;44142;-70
2022/05/12 03:52:53;;;;;;;1.83;1.50;;;22.10;70.00;;;;;;5029092;28;45787;-72
2022/05/12 03:55:23;;;;;;;2.23;2.03;;;22.20;69.40;;;;;;5046865;28;43861;-71
2022/05/12 03:57:55;;;;;;;2.00;1.90;;;22.30;69.30;;;;;;5045991;28;43977;-72
2022/05/12 04:00:26;;;;;;;1.97;1.87;;;22.30;69.40;;;;;;5033892;28;43986;-70
2022/05/12 04:02:54;;;;;;;1.83;1.73;;;22.20;68.90;;;;;;5029397;28;45970;-71
2022/05/12 04:05:22;;;;;;;1.83;1.73;;;22.10;69.10;;;;;;5047690;28;44056;-71
2022/05/12 04:07:51;;;;;;;1.77;1.70;;;22.00;68.20;;;;;;5047672;28;43829;-71
2022/05/12 04:10:19;;;;;;;2.00;1.90;;;22.00;69.00;;;;;;5047687;28;43392;-71
2022/05/12 04:12:47;;;;;;;3.43;2.30;;;21.90;70.80;;;;;;5029114;28;47316;-70
2022/05/12 04:15:16;;;;;;;4.80;2.10;;;22.00;70.30;;;;;;5048005;28;43960;-71
2022/05/12 04:17:46;;;;;;;4.23;2.67;;;22.10;69.30;;;;;;5045127;28;44026;-72
2022/05/12 04:20:14;;;;;;;2.70;2.40;;;22.10;69.70;;;;;;5047710;28;43890;-70
2022/05/12 04:22:43;;;;;;;2.73;2.50;;;22.10;69.80;;;;;;5047160;28;43893;-72
2022/05/12 04:25:11;;;;;;;4.10;2.40;;;22.00;69.40;;;;;;5046861;28;44025;-71
2022/05/12 04:27:41;;;;;;;6.03;2.90;;;21.90;68.70;;;;;;5047140;28;44006;-72
2022/05/12 04:30:10;;;;;;;2.83;2.50;;;21.90;68.70;;;;;;5029362;28;43386;-71
2022/05/12 04:32:40;;;;;;;4.83;3.03;;;21.80;68.80;;;;;;5046018;28;44065;-70
2022/05/12 04:35:11;;;;;;;3.63;3.13;;;21.80;70.80;;;;;;5044909;28;45206;-71
2022/05/12 04:37:41;;;;;;;5.87;3.23;;;21.80;71.50;;;;;;5046717;28;43409;-71
2022/05/12 04:40:10;;;;;;;4.37;2.83;;;22.00;71.30;;;;;;5046709;28;43628;-70
2022/05/12 04:42:40;;;;;;;6.77;3.00;;;22.10;70.00;;;;;;5046168;28;43942;-70
2022/05/12 04:45:09;;;;;;;6.70;3.47;;;22.20;69.60;;;;;;5046405;28;43880;-71
2022/05/12 04:47:40;;;;;;;3.43;2.93;;;22.30;68.90;;;;;;5045957;28;44089;-70
2022/05/12 04:50:09;;;;;;;4.93;2.87;;;22.40;69.20;;;;;;5028618;28;44005;-72
2022/05/12 04:52:37;;;;;;;3.50;3.03;;;22.30;68.70;;;;;;5046227;28;43996;-71
2022/05/12 04:55:06;;;;;;;4.43;3.07;;;22.20;68.90;;;;;;5046344;28;43988;-71
2022/05/12 04:57:38;;;;;;;3.20;2.90;;;22.20;69.00;;;;;;5046366;28;43925;-70
2022/05/12 05:00:07;;;;;;;3.97;2.87;;;22.10;68.50;;;;;;5040516;28;43944;-71
2022/05/12 05:02:37;;;;;;;2.80;2.60;;;22.00;70.60;;;;;;5046196;28;44074;-71
2022/05/12 05:05:08;;;;;;;4.83;2.53;;;22.00;70.70;;;;;;5046332;28;43999;-70
2022/05/12 05:07:36;;;;;;;2.60;2.40;;;22.10;70.40;;;;;;5046225;28;43379;-71
2022/05/12 05:10:05;;;;;;;2.60;2.47;;;22.10;69.80;;;;;;5028386;28;43943;-71
2022/05/12 05:12:33;;;;;;;3.07;2.80;;;22.10;69.50;;;;;;5045924;28;44052;-72
2022/05/12 05:15:01;;;;;;;3.73;2.60;;;22.10;69.40;;;;;;5046108;28;43348;-71
2022/05/12 05:17:29;;;;;;;2.80;2.53;;;22.00;69.30;;;;;;5044072;28;43452;-71
2022/05/12 05:19:57;;;;;;;3.17;2.50;;;22.00;68.80;;;;;;5046489;28;44003;-70
2022/05/12 05:22:26;;;;;;;3.10;2.90;;;21.90;68.70;;;;;;5046069;28;45048;-71
2022/05/12 05:24:54;;;;;;;2.47;2.30;;;21.90;69.00;;;;;;5046137;28;44124;-72
2022/05/12 05:27:22;;;;;;;2.60;2.40;;;21.80;69.00;;;;;;5046222;28;44009;-70
2022/05/12 05:29:51;;;;;;;2.60;2.50;;;21.80;70.80;;;;;;5046448;28;44005;-71
2022/05/12 05:32:20;;;;;;;2.70;2.50;;;21.80;71.50;;;;;;5045744;28;44024;-71
2022/05/12 05:34:48;;;;;;;2.37;2.27;;;21.90;71.20;;;;;;5045489;28;43829;-71
2022/05/12 05:37:16;;;;;;;2.50;2.30;;;22.00;70.10;;;;;;5045825;28;43977;-72
2022/05/12 05:39:45;;;;;;;2.87;2.63;;;22.20;69.20;;;;;;5046130;28;43972;-71
2022/05/12 05:42:15;;;;;;;2.43;2.23;;;22.30;69.30;;;;;;5045363;28;43890;-70
2022/05/12 05:44:43;;;;;;;2.67;2.50;;;22.20;69.30;;;;;;5048058;28;44133;-72
2022/05/12 05:47:11;;;;;;;2.07;1.97;;;22.20;69.00;;;;;;5031038;28;44049;-70
2022/05/12 05:49:39;;;;;;;2.30;2.20;;;22.10;68.80;;;;;;5049478;28;43498;-71
2022/05/12 05:54:54;;;;;;;2.67;2.30;;;22.00;68.50;;;;;;5049359;28;44108;-71
2022/05/12 05:57:23;;;;;;;2.30;2.20;;;21.90;68.70;;;;;;5049528;28;43361;-70
2022/05/12 05:59:52;;;;;;;2.83;2.63;;;21.80;71.00;;;;;;5049773;28;43405;-71
2022/05/12 06:02:20;;;;;;;2.33;2.23;;;21.90;71.40;;;;;;5030576;28;46807;-71
2022/05/12 06:04:48;;;;;;;2.57;2.37;;;22.00;70.50;;;;;;5048904;28;43819;-70
2022/05/12 06:07:16;;;;;;;2.43;2.30;;;22.10;70.40;;;;;;5049026;28;43907;-70
2022/05/12 06:09:44;;;;;;;2.57;2.40;;;22.10;70.30;;;;;;5047328;28;43952;-71
2022/05/12 06:12:13;;;;;;;2.27;2.17;;;22.10;69.80;;;;;;5048800;28;44849;-70
2022/05/12 06:14:42;;;;;;;2.50;2.30;;;22.00;69.40;;;;;;5048608;28;43887;-70
2022/05/12 06:17:10;;;;;;;1.70;1.70;;;21.90;69.10;;;;;;5030520;28;43941;-71
2022/05/12 06:19:39;;;;;;;2.30;2.20;;;21.90;69.20;;;;;;5030847;28;43883;-70
2022/05/12 06:22:06;;;;;;;2.60;2.10;;;21.80;69.20;;;;;;5048595;28;45107;-70
2022/05/12 06:24:38;;;;;;;2.47;2.20;;;21.70;69.30;;;;;;5046956;28;44059;-72
2022/05/12 06:27:07;;;;;;;2.50;2.10;;;21.70;69.40;;;;;;5048727;28;43376;-70
2022/05/12 06:29:37;;;;;;;2.03;1.93;;;21.70;69.60;;;;;;5048881;28;43973;-71
2022/05/12 06:32:06;;;;;;;2.40;2.07;;;21.70;72.10;;;;;;5041664;28;44063;-71
2022/05/12 06:34:34;;;;;;;2.30;2.20;;;21.80;71.30;;;;;;5041622;28;44001;-70
2022/05/12 06:37:02;;;;;;;1.93;1.83;;;22.00;71.30;;;;;;5023934;28;43982;-71
2022/05/12 06:39:33;;;;;;;2.70;2.10;;;22.10;70.40;;;;;;5048568;28;43921;-71
2022/05/12 06:42:01;;;;;;;1.90;1.80;;;22.20;69.90;;;;;;5047668;28;43917;-72
2022/05/12 06:44:43;;;;;;;2.93;1.73;;;22.40;69.00;;;;;;5046610;28;44757;-71
2022/05/12 06:47:15;;;;;;;1.90;1.80;;;22.60;68.60;;;;;;5048433;28;43489;-71
2022/05/12 06:49:43;;;;;;;2.00;1.90;;;22.80;67.90;;;;;;5048489;28;43986;-71
2022/05/12 06:52:11;;;;;;;1.80;1.80;;;22.90;67.10;;;;;;5048349;28;43998;-71
2022/05/12 06:54:40;;;;;;;1.97;1.87;;;23.10;66.80;;;;;;5048296;28;43445;-70
2022/05/12 06:57:09;;;;;;;2.00;1.90;;;23.20;66.40;;;;;;5047727;28;44012;-71
2022/05/12 06:59:38;;;;;;;2.10;2.00;;;23.30;66.00;;;;;;5048531;28;43389;-71
2022/05/12 07:02:07;;;;;;;1.70;1.60;;;23.40;66.00;;;;;;5047880;28;43742;-71
2022/05/12 07:04:35;;;;;;;1.63;1.63;;;23.40;65.50;;;;;;5048207;28;44088;-70
2022/05/12 07:07:06;;;;;;;2.47;2.33;;;23.30;65.50;;;;;;5029567;28;43976;-70
2022/05/12 07:09:34;;;;;;;2.00;1.90;;;23.20;65.70;;;;;;5046568;28;44025;-71
2022/05/12 07:12:02;;;;;;;1.87;1.80;;;23.00;66.30;;;;;;5046100;28;46103;-71
2022/05/12 07:14:31;;;;;;;1.80;1.80;;;22.80;66.70;;;;;;5047945;28;44149;-70
2022/05/12 07:17:01;;;;;;;2.00;1.90;;;22.70;68.00;;;;;;5048044;28;44004;-72
2022/05/12 07:19:31;;;;;;;1.80;1.80;;;22.60;67.90;;;;;;5029746;28;43506;-71
2022/05/12 07:27:37;;;;;;;1.60;1.60;;;22.50;67.90;;;;;;4973860;28;43487;-71
2022/05/12 07:30:06;;;;;;;1.60;1.60;;;22.50;68.10;;;;;;5046414;28;44072;-71
2022/05/12 07:32:37;;;;;;;1.73;1.73;;;22.30;67.90;;;;;;5047475;28;43953;-72
2022/05/12 07:35:07;;;;;;;1.67;1.67;;;22.20;67.80;;;;;;5029149;28;45023;-70
2022/05/12 07:37:37;;;;;;;1.57;1.50;;;22.10;68.00;;;;;;5047778;28;43861;-71
2022/05/12 07:40:08;;;;;;;1.80;1.70;;;22.00;68.20;;;;;;5047581;28;43531;-70
2022/05/12 07:42:36;;;;;;;1.77;1.67;;;21.90;69.40;;;;;;5046947;28;44051;-71
2022/05/12 07:45:05;;;;;;;1.77;1.67;;;21.90;70.60;;;;;;5047281;28;43906;-71
2022/05/12 07:47:33;;;;;;;2.07;1.87;;;22.00;70.70;;;;;;5047340;28;43900;-70
2022/05/12 07:50:01;;;;;;;1.63;1.63;;;22.10;69.80;;;;;;5047735;28;43348;-70
2022/05/12 07:52:30;;;;;;;1.67;1.57;;;22.20;69.40;;;;;;5047178;28;44029;-71
2022/05/12 07:54:58;;;;;;;1.70;1.70;;;22.30;68.90;;;;;;5046878;28;44107;-72
2022/05/12 07:57:26;;;;;;;1.60;1.60;;;22.30;69.30;;;;;;5047353;28;44028;-71
2022/05/12 07:59:55;;;;;;;1.57;1.50;;;22.30;69.00;;;;;;5047797;28;43905;-72
2022/05/12 08:02:24;;;;;;;1.50;1.50;;;22.20;68.90;;;;;;5047263;28;43915;-70
2022/05/12 08:04:52;;;;;;;1.77;1.77;;;22.10;68.40;;;;;;5028943;28;44617;-71
2022/05/12 08:07:20;;;;;;;1.60;1.53;;;22.00;68.30;;;;;;5045951;28;44036;-71
2022/05/12 08:09:49;;;;;;;1.60;1.60;;;22.00;68.50;;;;;;5047263;28;43980;-72
2022/05/12 08:12:17;;;;;;;1.50;1.50;;;21.90;70.50;;;;;;5047065;28;43895;-71
2022/05/12 08:14:45;;;;;;;1.73;1.63;;;21.90;70.90;;;;;;5047035;28;44060;-71
2022/05/12 08:17:13;;;;;;;1.80;1.70;;;22.00;70.70;;;;;;5046649;28;43297;-71
2022/05/12 08:19:41;;;;;;;1.50;1.50;;;22.10;70.40;;;;;;5047279;28;43439;-72
2022/05/12 08:22:09;;;;;;;1.50;1.50;;;22.00;70.10;;;;;;5046908;28;43943;-71
2022/05/12 08:24:37;;;;;;;1.40;1.40;;;22.00;69.50;;;;;;5028434;28;44739;-71
2022/05/12 08:27:06;;;;;;;1.50;1.50;;;22.00;68.90;;;;;;5046943;28;43771;-70
2022/05/12 08:29:34;;;;;;;1.70;1.60;;;21.90;68.80;;;;;;5047056;28;43939;-71
2022/05/12 08:32:02;;;;;;;1.40;1.40;;;21.80;68.80;;;;;;5046290;28;44166;-70
2022/05/12 08:34:32;;;;;;;1.50;1.50;;;21.80;69.10;;;;;;5039900;28;43964;-71
2022/05/12 08:37:01;;;;;;;1.50;1.50;;;21.70;69.10;;;;;;5047123;28;44065;-71
2022/05/12 08:39:34;;;;;;;1.50;1.50;;;21.70;70.90;;;;;;5041168;28;43392;-71
2022/05/12 08:42:06;;;;;;;1.37;1.37;;;21.70;72.40;;;;;;5044620;28;45473;-71
2022/05/12 08:44:38;;;;;;;1.40;1.40;;;21.80;71.10;;;;;;5027941;28;44351;-71
2022/05/12 08:47:07;;;;;;;1.40;1.40;;;22.00;70.30;;;;;;5028367;28;44006;-71
2022/05/12 08:49:38;;;;;;;1.50;1.50;;;22.10;70.00;;;;;;5046724;28;44072;-71
2022/05/12 08:52:10;;;;;;;1.50;1.50;;;22.20;69.50;;;;;;5046468;28;45255;-71
2022/05/12 08:54:40;;;;;;;1.33;1.33;;;22.20;69.70;;;;;;5044835;28;44813;-71
2022/05/12 08:57:09;;;;;;;1.43;1.43;;;22.20;69.50;;;;;;5028313;28;44011;-71
2022/05/12 08:59:41;;;;;;;1.33;1.33;;;22.10;69.20;;;;;;5046595;28;43452;-71
2022/05/12 09:02:21;;;;;;;1.40;1.40;;;22.00;68.60;;;;;;5046173;28;44849;-71
2022/05/12 09:05:02;;;;;;;1.30;1.30;;;22.00;68.60;;;;;;5046378;28;44021;-72
2022/05/12 09:07:33;;;;;;;1.50;1.50;;;21.90;68.80;;;;;;5028269;28;43349;-70
2022/05/12 09:10:07;;;;;;;1.60;1.60;;;21.80;71.40;;;;;;5046643;28;44022;-71
2022/05/12 09:12:38;;;;;;;1.50;1.40;;;21.80;71.30;;;;;;5046511;28;43831;-70
2022/05/12 09:15:10;;;;;;;1.30;1.30;;;21.90;70.60;;;;;;5045982;28;43966;-72
2022/05/12 09:17:42;;;;;;;1.57;1.57;;;22.00;70.60;;;;;;5046208;28;44020;-71
2022/05/12 09:20:11;;;;;;;1.30;1.30;;;22.00;70.30;;;;;;5048031;28;44021;-71
2022/05/12 09:22:40;;;;;;;1.40;1.40;;;22.00;69.60;;;;;;5031170;28;45382;-71
2022/05/12 09:25:08;;;;;;;1.40;1.40;;;21.90;69.00;;;;;;5049535;28;43434;-71
2022/05/12 09:27:39;;;;;;;1.20;1.20;;;21.80;68.90;;;;;;5049766;28;44034;-70
2022/05/12 09:30:10;;;;;;;1.37;1.37;;;21.80;69.10;;;;;;5049943;28;43984;-70
2022/05/12 09:32:39;;;;;;;1.10;1.10;;;21.70;69.20;;;;;;5049347;28;43974;-70
2022/05/12 09:35:14;;;;;;;1.10;1.10;;;21.70;69.30;;;;;;5049189;28;43916;-72
2022/05/12 09:37:42;;;;;;;1.30;1.30;;;21.60;71.10;;;;;;5049649;28;44057;-71
2022/05/12 09:40:23;;;;;;;1.23;1.20;;;21.70;71.90;;;;;;5047767;28;43672;-71
2022/05/12 09:42:51;;;;;;;1.10;1.10;;;21.80;71.50;;;;;;5049127;28;44071;-71
2022/05/12 09:45:28;;;;;;;1.20;1.20;;;22.00;70.60;;;;;;5049244;28;43372;-71
2022/05/12 09:48:18;;;;;;;1.30;1.30;;;22.10;70.40;;;;;;5049461;28;43934;-70
2022/05/12 09:50:46;;;;;;;1.20;1.20;;;22.20;69.60;;;;;;5031292;28;43993;-72
2022/05/12 09:53:14;;;;;;;1.60;1.20;;;22.20;69.80;;;;;;5049195;28;44011;-72
2022/05/12 09:55:43;;;;;;;1.20;1.20;;;22.10;69.60;;;;;;5049031;28;43953;-71
2022/05/12 09:58:28;;;;;;;1.20;1.20;;;22.10;68.80;;;;;;5049298;28;43462;-71
2022/05/12 10:01:13;;;;;;;1.20;1.20;;;22.00;68.60;;;;;;5043912;28;44047;-71
2022/05/12 10:09:19;;;;;;;1.10;1.10;;;21.80;71.40;;;;;;5044794;28;44076;-71
2022/05/12 10:11:50;;;;;;;1.20;1.20;;;21.90;71.40;;;;;;5049448;28;44008;-71
2022/05/12 10:14:33;;;;;;;1.10;1.10;;;22.00;71.00;;;;;;5048701;28;45021;-71
2022/05/12 10:17:05;;;;;;;1.17;1.17;;;22.00;70.60;;;;;;5048761;28;43444;-71
2022/05/12 10:19:33;;;;;;;1.10;1.10;;;22.00;70.10;;;;;;5048804;28;43435;-70
2022/05/12 10:22:09;;;;;;;1.20;1.20;;;21.90;69.30;;;;;;5049032;28;43980;-71
2022/05/12 10:24:40;;;;;;;1.10;1.10;;;21.90;69.20;;;;;;5040521;28;45793;-71
2022/05/12 10:27:10;;;;;;;1.20;1.20;;;21.80;69.30;;;;;;5042382;28;44124;-72
2022/05/12 10:29:42;;;;;;;1.10;1.10;;;21.70;69.30;;;;;;5046393;28;43964;-70
2022/05/12 10:32:17;;;;;;;1.23;1.23;;;21.70;69.50;;;;;;5048607;28;43894;-71
2022/05/12 10:34:48;;;;;;;1.30;1.30;;;21.60;69.50;;;;;;5048346;28;43925;-71
2022/05/12 10:37:28;;;;;;;1.30;1.30;;;21.60;71.80;;;;;;5030265;28;43859;-71
2022/05/12 10:39:58;;;;;;;1.13;1.13;;;21.70;72.00;;;;;;5048648;28;43988;-71
2022/05/12 10:42:32;;;;;;;1.23;1.23;;;21.90;71.30;;;;;;5048328;28;43967;-71
2022/05/12 10:45:08;;;;;;;1.20;1.20;;;22.00;70.50;;;;;;5029890;28;43925;-71
2022/05/12 10:47:47;;;;;;;1.10;1.10;;;22.10;69.80;;;;;;5048242;28;44019;-71
2022/05/12 10:50:18;;;;;;;1.20;1.20;;;22.20;70.10;;;;;;5030093;28;43941;-72
2022/05/12 10:52:49;;;;;;;1.07;1.07;;;22.10;69.90;;;;;;5048629;28;44022;-71
2022/05/12 10:55:21;;;;;;;1.20;1.20;;;22.10;69.20;;;;;;5029970;28;45896;-70
2022/05/12 10:57:59;;;;;;;1.27;1.27;;;22.00;69.00;;;;;;5048001;28;43354;-71
2022/05/12 11:00:48;;;;;;;1.60;1.50;;;21.90;69.00;;;;;;5048300;28;44025;-71
2022/05/12 11:03:19;;;;;;;1.00;1.00;;;21.90;69.30;;;;;;5048472;28;43921;-71
2022/05/12 11:05:48;;;;;;;1.20;1.20;;;21.80;70.10;;;;;;5042065;28;43969;-71
2022/05/12 11:08:20;;;;;;;1.13;1.13;;;21.80;71.70;;;;;;5047665;28;43940;-71
2022/05/12 11:10:49;;;;;;;0.97;0.97;;;21.90;71.10;;;;;;5048045;28;43889;-71
2022/05/12 11:13:22;;;;;;;1.10;1.10;;;22.00;71.40;;;;;;5048262;28;43942;-71
2022/05/12 11:15:53;;;;;;;1.13;1.13;;;22.00;70.60;;;;;;5047939;28;43921;-70
2022/05/12 11:18:29;;;;;;;0.90;0.90;;;22.00;69.70;;;;;;5048094;28;43910;-70
2022/05/12 11:21:01;;;;;;;1.00;1.00;;;21.90;69.30;;;;;;5047805;28;43973;-70
2022/05/12 11:23:38;;;;;;;0.90;0.90;;;21.90;69.30;;;;;;5029719;28;44026;-71
2022/05/12 11:26:09;;;;;;;1.00;1.00;;;21.80;69.40;;;;;;5047644;28;44797;-70
2022/05/12 11:31:26;;;;;;;1.03;1.03;;;21.70;69.70;;;;;;5048047;28;44011;-71
2022/05/12 11:33:57;;;;;;;1.30;1.20;;;21.70;70.00;;;;;;5048075;28;44019;-71
2022/05/12 11:36:37;;;;;;;0.90;0.90;;;21.70;71.90;;;;;;5047602;28;44104;-70
2022/05/12 11:39:21;;;;;;;1.17;1.17;;;21.80;71.80;;;;;;5045730;28;44882;-70
2022/05/12 11:41:49;;;;;;;1.07;1.07;;;22.00;70.90;;;;;;5047325;28;43936;-71
2022/05/12 11:44:27;;;;;;;1.10;1.10;;;22.10;70.40;;;;;;5047831;28;43883;-70
2022/05/12 11:47:17;;;;;;;0.97;0.97;;;22.20;70.40;;;;;;5047640;28;43624;-71
2022/05/12 11:49:57;;;;;;;1.10;1.10;;;22.20;70.00;;;;;;5039009;28;44270;-71
2022/05/12 11:52:31;;;;;;;1.13;1.13;;;22.10;69.40;;;;;;5047565;28;44022;-71
2022/05/12 11:55:02;;;;;;;1.03;1.03;;;22.10;69.10;;;;;;5047508;28;44016;-70
2022/05/12 11:57:32;;;;;;;1.00;1.00;;;22.00;69.00;;;;;;5022355;28;46049;-72
2022/05/12 12:00:00;;;;;;;1.10;1.10;;;21.90;69.10;;;;;;5041000;28;43998;-71
2022/05/12 12:02:46;;;;;;;1.00;1.00;;;21.80;69.30;;;;;;5047386;28;43906;-71
2022/05/12 12:06:01;;;;;;;1.10;1.10;;;21.80;71.50;;;;;;5047469;28;43922;-71
2022/05/12 12:08:43;;;;;;;1.03;1.03;;;21.80;71.40;;;;;;5034025;28;43977;-71
2022/05/12 12:11:27;;;;;;;1.30;1.30;;;22.00;71.00;;;;;;5046883;28;43937;-71
2022/05/12 12:13:56;;;;;;;1.00;1.00;;;22.10;70.40;;;;;;5047258;28;43923;-71
2022/05/12 12:16:25;;;;;;;1.27;1.00;;;22.10;70.00;;;;;;5041193;28;43821;-71
2022/05/12 12:19:04;;;;;;;1.20;1.20;;;22.10;69.80;;;;;;5040765;28;43693;-71
2022/05/12 12:21:53;;;;;;;0.90;0.90;;;22.10;69.20;;;;;;5046929;28;43968;-71
2022/05/12 12:24:57;;;;;;;0.97;0.97;;;22.00;69.10;;;;;;5028940;28;44111;-71
2022/05/12 12:28:13;;;;;;;1.07;1.07;;;21.90;69.30;;;;;;4998290;28;44285;-72
2022/05/12 12:31:11;;;;;;;1.00;1.00;;;21.80;69.50;;;;;;5046880;28;43929;-71
2022/05/12 12:34:01;;;;;;;1.00;1.00;;;21.70;71.10;;;;;;5040037;28;43426;-71
2022/05/12 12:37:01;;;;;;;1.30;1.30;;;21.70;71.40;;;;;;5046724;28;43402;-71
2022/05/12 12:39:43;;;;;;;1.00;1.00;;;21.90;71.00;;;;;;4985400;28;43408;-71
2022/05/12 12:42:28;;;;;;;1.10;1.10;;;22.10;70.80;;;;;;5038837;28;44137;-71
2022/05/12 12:44:59;;;;;;;0.90;0.90;;;22.20;70.30;;;;;;5028341;28;44680;-71
2022/05/12 12:47:39;;;;;;;1.00;1.00;;;22.10;69.90;;;;;;5028545;28;44066;-71
2022/05/12 12:50:34;;;;;;;1.00;0.90;;;22.10;69.20;;;;;;5040698;28;43998;-70
2022/05/12 12:53:04;;;;;;;1.03;1.03;;;22.00;68.90;;;;;;5030753;28;44952;-72
2022/05/12 12:58:26;;;;;;;1.10;1.10;;;21.80;69.00;;;;;;5046614;28;43969;-71
2022/05/12 13:00:57;;;;;;;0.90;0.90;;;21.80;69.20;;;;;;5045475;28;44314;-71
2022/05/12 13:03:28;;;;;;;1.43;1.10;;;21.80;71.30;;;;;;5046422;28;44089;-72
2022/05/12 13:06:07;;;;;;;2.30;1.30;;;21.80;71.40;;;;;;5046177;28;44064;-71
2022/05/12 13:08:36;;;;;;;1.20;1.20;;;21.90;71.30;;;;;;5044651;28;43945;-71
2022/05/12 13:11:07;;;;;;;1.83;1.23;;;21.90;70.60;;;;;;5046798;28;44020;-70
2022/05/12 13:13:47;;;;;;;1.80;1.23;;;22.00;70.90;;;;;;5046359;28;43945;-72
2022/05/12 13:16:19;;;;;;;1.57;1.33;;;21.90;69.00;;;;;;5046409;28;44004;-71
2022/05/12 13:18:48;;;;;;;1.80;1.70;;;21.90;68.90;;;;;;5046136;28;43973;-71
2022/05/12 13:21:20;;;;;;;1.40;1.40;;;21.80;68.50;;;;;;5045042;28;44419;-70
2022/05/12 13:24:00;;;;;;;1.60;1.60;;;21.70;68.30;;;;;;5040068;28;43882;-71
2022/05/12 13:26:28;;;;;;;1.80;1.80;;;21.70;68.40;;;;;;5046100;28;44052;-71
2022/05/12 13:28:56;;;;;;;1.80;1.70;;;21.70;68.10;;;;;;5027815;28;44041;-72